Terminal Aerodrome Forecast
Issued by NWS

Home | Current Version | Previous Version | Text Only | Print | Product List | Glossary On
Versions: 1 2 3 4 5 6 7 8 9 10 11 12 13 14 15 16 17 18 19 20 21 22 23 24 25 26 27
000
FTUS43 KBIS 010821 AAA
TAFMOT
TAF AMD
KMOT 010821Z 0108/0206 30016G27KT P6SM OVC014
      TEMPO 0108/0112 5SM -SHRA BR OVC008
     FM011200 30015G22KT P6SM OVC012
     FM011800 32014KT P6SM BKN030
     FM012100 32012KT P6SM SCT040
     FM020300 24005KT P6SM SKC=

USA.gov is the U.S. government's official web portal to all federal, state and local government web resources and services.